createdAt,value
2018-04-24T00:00:23.135Z,13.70
2018-04-24T00:02:51.257Z,13.70
2018-04-24T00:05:28.410Z,13.60
2018-04-24T00:07:56.486Z,13.50
2018-04-24T00:10:24.538Z,13.50
2018-04-24T00:12:52.585Z,13.40
2018-04-24T00:15:20.682Z,13.40
2018-04-24T00:17:48.725Z,13.40
2018-04-24T00:20:16.816Z,13.30
2018-04-24T00:22:44.881Z,13.30
2018-04-24T00:25:12.969Z,13.20
2018-04-24T00:27:41.042Z,13.10
2018-04-24T00:30:09.098Z,13.10
2018-04-24T00:32:37.174Z,13.00
2018-04-24T00:35:05.257Z,13.00
2018-04-24T00:37:33.356Z,13.00
2018-04-24T00:40:01.425Z,13.00
2018-04-24T00:42:29.490Z,12.90
2018-04-24T00:44:57.550Z,12.90
2018-04-24T00:47:25.614Z,12.90
2018-04-24T00:49:53.674Z,12.80
2018-04-24T00:52:21.722Z,12.80
2018-04-24T00:54:50.546Z,12.70
2018-04-24T00:57:18.590Z,12.70
2018-04-24T00:59:49.710Z,12.70
2018-04-24T01:02:17.766Z,12.50
2018-04-24T01:04:45.810Z,12.50
2018-04-24T01:07:13.850Z,12.50
2018-04-24T01:09:42.709Z,12.40
2018-04-24T01:12:10.777Z,12.30
2018-04-24T01:14:38.845Z,12.30
2018-04-24T01:17:06.930Z,12.30
2018-04-24T01:19:35.000Z,12.40
2018-04-24T01:22:03.075Z,12.40
2018-04-24T01:24:31.146Z,12.40
2018-04-24T01:26:59.268Z,12.30
2018-04-24T01:29:27.301Z,12.30
2018-04-24T01:31:55.369Z,12.30
2018-04-24T01:34:23.437Z,12.40
2018-04-24T01:36:51.499Z,12.30
2018-04-24T01:39:19.569Z,12.20
2018-04-24T01:41:52.506Z,12.20
2018-04-24T01:44:20.565Z,12.20
2018-04-24T01:46:48.642Z,12.20
2018-04-24T01:49:16.710Z,12.10
2018-04-24T01:51:44.753Z,12.10
2018-04-24T01:54:12.809Z,12.10
2018-04-24T01:56:40.873Z,12.20
2018-04-24T01:59:08.936Z,12.20
2018-04-24T02:01:37.031Z,12.30
2018-04-24T02:04:05.096Z,12.30
2018-04-24T02:06:33.147Z,12.30
2018-04-24T02:12:00.721Z,12.20
2018-04-24T02:14:28.794Z,12.20
2018-04-24T02:16:58.992Z,12.20
2018-04-24T02:19:27.808Z,12.10
2018-04-24T02:21:55.894Z,12.10
2018-04-24T02:24:23.938Z,12.00
2018-04-24T02:26:52.014Z,11.90
2018-04-24T02:29:26.113Z,11.90
2018-04-24T02:31:54.934Z,11.80
2018-04-24T02:34:23.034Z,11.80
2018-04-24T02:36:51.238Z,11.70
2018-04-24T02:39:19.190Z,11.70
2018-04-24T02:41:47.262Z,11.60
2018-04-24T02:44:15.332Z,11.60
2018-04-24T02:46:43.401Z,11.50
2018-04-24T02:49:11.458Z,11.50
2018-04-24T02:51:39.530Z,11.60
2018-04-24T02:54:07.598Z,11.50
2018-04-24T02:56:35.644Z,11.50
2018-04-24T02:59:03.746Z,11.50
2018-04-24T03:01:31.827Z,11.50
2018-04-24T03:03:59.903Z,11.40
2018-04-24T03:06:27.969Z,11.40
2018-04-24T03:08:56.031Z,11.30
2018-04-24T03:11:24.093Z,11.30
2018-04-24T03:13:52.132Z,11.30
2018-04-24T03:16:20.227Z,11.20
2018-04-24T03:18:48.262Z,11.20
2018-04-24T03:21:16.332Z,11.20
2018-04-24T03:23:46.474Z,11.10
2018-04-24T03:26:14.553Z,11.10
2018-04-24T03:28:42.609Z,11.10
2018-04-24T03:31:11.461Z,11.00
2018-04-24T03:33:39.534Z,11.00
2018-04-24T03:36:07.598Z,11.00
2018-04-24T03:38:35.670Z,11.00
2018-04-24T03:41:03.729Z,11.00
2018-04-24T03:43:31.818Z,10.90
2018-04-24T03:45:59.874Z,10.90
2018-04-24T03:48:27.921Z,10.90
2018-04-24T03:50:55.989Z,10.90
2018-04-24T03:53:24.057Z,10.90
2018-04-24T03:55:52.109Z,10.80
2018-04-24T03:58:20.197Z,10.90
2018-04-24T04:00:48.265Z,10.90
2018-04-24T04:03:16.334Z,10.90
2018-04-24T04:05:45.233Z,10.80
2018-04-24T04:08:13.281Z,10.80
2018-04-24T04:10:41.333Z,10.80
2018-04-24T04:13:09.405Z,10.80
2018-04-24T04:15:37.457Z,10.70
2018-04-24T04:18:17.342Z,10.70
2018-04-24T04:20:57.134Z,10.70
2018-04-24T04:23:37.054Z,10.70
2018-04-24T04:26:05.122Z,10.70
2018-04-24T04:28:33.209Z,10.70
2018-04-24T04:31:02.138Z,10.70
2018-04-24T04:33:30.190Z,10.70
2018-04-24T04:35:58.258Z,10.60
2018-04-24T04:38:26.323Z,10.60
2018-04-24T04:40:54.390Z,10.70
2018-04-24T04:43:23.220Z,10.80
2018-04-24T04:45:51.293Z,10.80
2018-04-24T04:48:19.363Z,10.80
2018-04-24T04:50:47.434Z,10.90
2018-04-24T04:53:15.509Z,10.90
2018-04-24T04:55:43.598Z,11.00
2018-04-24T04:58:11.637Z,11.00
2018-04-24T05:00:39.714Z,11.00
2018-04-24T05:03:07.798Z,11.00
2018-04-24T05:05:35.842Z,11.10
2018-04-24T05:08:06.021Z,11.10
2018-04-24T05:10:34.069Z,11.20
2018-04-24T05:13:02.158Z,11.20
2018-04-24T05:15:30.249Z,11.20
2018-04-24T05:17:58.323Z,11.30
2018-04-24T05:20:26.368Z,11.30
2018-04-24T05:22:54.466Z,11.40
2018-04-24T05:25:22.537Z,11.60
2018-04-24T05:27:50.613Z,11.60
2018-04-24T05:30:18.686Z,11.70
2018-04-24T05:32:46.738Z,11.80
2018-04-24T05:35:21.668Z,11.80
2018-04-24T05:37:49.729Z,11.90
2018-04-24T05:40:17.787Z,12.00
2018-04-24T05:42:45.861Z,12.00
2018-04-24T05:45:14.021Z,12.10
2018-04-24T05:47:42.029Z,12.10
2018-04-24T05:50:10.110Z,12.20
2018-04-24T05:52:38.170Z,12.20
2018-04-24T05:55:07.019Z,12.40
2018-04-24T05:57:35.118Z,12.30
2018-04-24T06:00:03.210Z,12.40
2018-04-24T06:02:31.276Z,12.50
2018-04-24T06:04:59.327Z,12.50
2018-04-24T06:07:27.414Z,12.60
2018-04-24T06:09:55.494Z,12.70
2018-04-24T06:12:33.711Z,12.70
2018-04-24T06:15:01.811Z,12.70
2018-04-24T06:17:29.855Z,12.80
2018-04-24T06:19:57.940Z,12.80
2018-04-24T06:22:26.102Z,12.90
2018-04-24T06:24:54.065Z,12.90
2018-04-24T06:27:22.134Z,13.00
2018-04-24T06:29:50.209Z,13.00
2018-04-24T06:32:18.257Z,13.10
2018-04-24T06:34:46.358Z,13.20
2018-04-24T06:37:14.430Z,13.20
2018-04-24T06:39:59.400Z,13.20
2018-04-24T06:42:27.448Z,13.20
2018-04-24T06:44:55.510Z,13.20
2018-04-24T06:47:23.577Z,13.30
2018-04-24T06:49:51.646Z,13.40
2018-04-24T06:52:19.725Z,13.50
2018-04-24T06:54:47.798Z,13.60
2018-04-24T06:57:25.725Z,13.60
2018-04-24T06:59:53.790Z,13.70
2018-04-24T07:02:21.863Z,13.80
2018-04-24T07:04:49.923Z,13.90
2018-04-24T07:07:17.957Z,14.00
2018-04-24T07:09:46.806Z,14.20
2018-04-24T07:12:14.885Z,14.20
2018-04-24T07:14:42.955Z,14.30
2018-04-24T07:17:11.009Z,14.40
2018-04-24T07:19:39.105Z,14.50
2018-04-24T07:22:07.174Z,14.50
2018-04-24T07:24:35.227Z,14.60
2018-04-24T07:27:03.358Z,14.60
2018-04-24T07:29:31.345Z,14.60
2018-04-24T07:31:59.389Z,14.70
2018-04-24T07:34:27.474Z,14.70
2018-04-24T07:36:55.514Z,14.70
2018-04-24T07:39:23.555Z,14.70
2018-04-24T07:41:51.703Z,14.80
2018-04-24T07:44:19.770Z,14.80
2018-04-24T07:46:47.850Z,14.90
2018-04-24T07:49:15.873Z,14.90
2018-04-24T07:51:43.972Z,14.90
2018-04-24T07:54:16.086Z,15.00
2018-04-24T07:56:44.137Z,15.10
2018-04-24T07:59:21.133Z,15.20
2018-04-24T08:01:49.168Z,15.20
2018-04-24T08:04:17.987Z,15.40
2018-04-24T08:06:46.051Z,15.40
2018-04-24T08:09:14.301Z,15.50
2018-04-24T08:11:43.134Z,15.50
2018-04-24T08:14:11.211Z,15.50
2018-04-24T08:16:39.357Z,15.70
2018-04-24T08:19:23.391Z,15.80
2018-04-24T08:21:52.354Z,16.10
2018-04-24T08:24:20.418Z,16.00
2018-04-24T08:26:48.604Z,16.10
2018-04-24T08:29:16.803Z,16.00
2018-04-24T08:31:53.642Z,16.00
2018-04-24T08:34:21.697Z,16.10
2018-04-24T08:36:49.783Z,16.20
2018-04-24T08:39:17.845Z,16.30
2018-04-24T08:41:45.898Z,16.40
2018-04-24T08:44:13.955Z,16.50
2018-04-24T08:46:42.033Z,16.50
2018-04-24T08:49:10.884Z,16.60
2018-04-24T08:51:39.062Z,16.60
2018-04-24T08:54:07.365Z,16.60
2018-04-24T08:56:35.782Z,16.60
2018-04-24T08:59:04.017Z,16.70
2018-04-24T09:01:32.058Z,16.70
2018-04-24T09:04:00.122Z,16.70
2018-04-24T09:06:28.187Z,16.70
2018-04-24T09:08:56.266Z,16.80
2018-04-24T09:11:25.273Z,16.80
2018-04-24T09:13:53.342Z,16.90
2018-04-24T09:16:21.403Z,16.80
2018-04-24T09:18:49.477Z,16.80
2018-04-24T09:21:17.531Z,16.80
2018-04-24T09:23:45.599Z,16.80
2018-04-24T09:26:29.341Z,16.80
2018-04-24T09:28:57.433Z,16.80
2018-04-24T09:31:31.301Z,16.90
2018-04-24T09:34:00.150Z,16.90
2018-04-24T09:36:28.383Z,17.00
2018-04-24T09:38:56.519Z,16.80
2018-04-24T09:41:24.631Z,16.80
2018-04-24T09:43:52.727Z,16.80
2018-04-24T09:46:20.781Z,16.80
2018-04-24T09:48:48.915Z,16.90
2018-04-24T09:51:17.015Z,17.00
2018-04-24T09:53:45.019Z,17.10
2018-04-24T09:56:13.085Z,17.20
2018-04-24T09:58:41.138Z,17.30
2018-04-24T10:01:09.199Z,17.30
2018-04-24T10:03:46.141Z,17.40
2018-04-24T10:06:14.177Z,17.40
2018-04-24T10:08:42.237Z,17.60
2018-04-24T10:11:10.311Z,17.60
2018-04-24T10:13:38.432Z,17.60
2018-04-24T10:16:11.442Z,17.50
2018-04-24T10:18:39.517Z,17.50
2018-04-24T10:21:07.590Z,17.50
2018-04-24T10:23:35.685Z,17.60
2018-04-24T10:26:03.744Z,17.80
2018-04-24T10:28:31.774Z,17.90
2018-04-24T10:30:59.853Z,18.00
2018-04-24T10:33:27.926Z,17.90
2018-04-24T10:35:55.970Z,17.70
2018-04-24T10:38:24.025Z,17.60
2018-04-24T10:40:52.106Z,17.60
2018-04-24T10:43:20.171Z,17.70
2018-04-24T10:45:48.250Z,17.90
2018-04-24T10:48:26.465Z,18.00
2018-04-24T10:50:54.537Z,18.00
2018-04-24T10:53:22.614Z,18.00
2018-04-24T10:55:50.689Z,18.00
2018-04-24T10:58:18.758Z,18.20
2018-04-24T11:00:46.813Z,18.30
2018-04-24T11:03:14.893Z,18.30
2018-04-24T11:05:42.954Z,18.30
2018-04-24T11:08:11.025Z,18.30
2018-04-24T11:10:39.090Z,18.40
2018-04-24T11:13:07.145Z,18.50
2018-04-24T11:15:35.205Z,18.60
2018-04-24T11:18:04.034Z,18.90
2018-04-24T11:20:32.108Z,18.90
2018-04-24T11:23:00.178Z,18.80
2018-04-24T11:25:28.250Z,18.80
2018-04-24T11:27:56.318Z,18.90
2018-04-24T11:30:24.479Z,19.00
2018-04-24T11:32:52.462Z,18.90
2018-04-24T11:35:20.553Z,19.10
2018-04-24T11:37:48.627Z,19.30
2018-04-24T11:40:16.758Z,19.40
2018-04-24T11:42:44.838Z,19.30
2018-04-24T11:45:12.959Z,19.40
2018-04-24T11:47:40.962Z,19.50
2018-04-24T11:50:09.819Z,19.80
2018-04-24T11:52:37.861Z,19.80
2018-04-24T11:55:05.897Z,19.90
2018-04-24T11:57:34.794Z,20.10
2018-04-24T12:00:02.867Z,20.10
2018-04-24T12:02:31.769Z,20.10
2018-04-24T12:04:59.753Z,20.10
2018-04-24T12:07:27.796Z,20.00
2018-04-24T12:09:56.676Z,20.20
2018-04-24T12:12:32.598Z,20.10
2018-04-24T12:15:00.676Z,20.20
2018-04-24T12:17:28.747Z,20.20
2018-04-24T12:19:56.818Z,20.10
2018-04-24T12:22:31.649Z,20.10
2018-04-24T12:24:59.702Z,20.10
2018-04-24T12:27:27.769Z,20.00
2018-04-24T12:29:55.842Z,20.00
2018-04-24T12:32:23.913Z,20.00
2018-04-24T12:34:51.971Z,20.10
2018-04-24T12:37:20.031Z,20.20
2018-04-24T12:39:48.091Z,20.40
2018-04-24T12:42:16.931Z,20.40
2018-04-24T12:44:45.022Z,20.30
2018-04-24T12:47:13.086Z,20.50
2018-04-24T12:49:41.154Z,20.50
2018-04-24T12:52:09.261Z,20.60
2018-04-24T12:54:53.680Z,20.80
2018-04-24T12:57:21.718Z,20.80
2018-04-24T12:59:49.774Z,21.00
2018-04-24T13:02:18.625Z,21.20
2018-04-24T13:04:46.812Z,21.20
2018-04-24T13:07:15.713Z,21.20
2018-04-24T13:09:43.830Z,21.40
2018-04-24T13:12:11.821Z,21.60
2018-04-24T13:14:39.909Z,21.50
2018-04-24T13:17:08.001Z,21.50
2018-04-24T13:19:36.078Z,21.40
2018-04-24T13:22:04.139Z,21.30
2018-04-24T13:24:38.942Z,21.30
2018-04-24T13:27:07.002Z,21.20
2018-04-24T13:29:35.046Z,21.40
2018-04-24T13:32:03.846Z,21.70
2018-04-24T13:34:31.938Z,21.70
2018-04-24T13:36:59.994Z,21.90
2018-04-24T13:39:28.142Z,22.10
2018-04-24T13:41:56.209Z,22.20
2018-04-24T13:44:25.658Z,22.20
2018-04-24T13:46:53.758Z,22.20
2018-04-24T13:49:21.831Z,22.30
2018-04-24T13:51:49.881Z,22.20
2018-04-24T13:54:17.962Z,22.10
2018-04-24T13:56:46.020Z,22.10
2018-04-24T13:59:14.078Z,22.00
2018-04-24T14:01:42.163Z,22.00
2018-04-24T14:04:10.237Z,22.10
2018-04-24T14:06:38.307Z,22.00
2018-04-24T14:09:06.370Z,22.00
2018-04-24T14:11:34.450Z,22.10
2018-04-24T14:14:02.513Z,22.20
2018-04-24T14:16:31.305Z,22.60
2018-04-24T14:18:59.369Z,22.60
2018-04-24T14:21:27.534Z,23.00
2018-04-24T14:23:55.494Z,23.20
2018-04-24T14:26:23.557Z,22.90
2018-04-24T14:28:51.613Z,22.90
2018-04-24T14:31:19.686Z,23.10
2018-04-24T14:33:47.755Z,23.30
2018-04-24T14:36:15.809Z,23.20
2018-04-24T14:38:43.886Z,23.00
2018-04-24T14:41:20.886Z,22.80
2018-04-24T14:43:48.961Z,22.50
2018-04-24T14:46:17.030Z,22.40
2018-04-24T14:48:45.172Z,22.50
2018-04-24T14:51:13.174Z,22.50
2018-04-24T14:53:41.229Z,22.40
2018-04-24T14:56:09.306Z,22.00
2018-04-24T14:58:59.090Z,21.60
2018-04-24T15:01:27.183Z,21.40
2018-04-24T15:03:55.250Z,21.30
2018-04-24T15:06:23.295Z,21.30
2018-04-24T15:08:51.418Z,21.20
2018-04-24T15:11:20.243Z,21.10
2018-04-24T15:13:48.342Z,21.10
2018-04-24T15:16:17.194Z,21.20
2018-04-24T15:18:45.288Z,21.20
2018-04-24T15:21:13.343Z,21.30
2018-04-24T15:23:42.406Z,21.30
2018-04-24T15:26:11.229Z,21.30
2018-04-24T15:28:39.334Z,21.30
2018-04-24T15:31:07.497Z,21.20
2018-04-24T15:33:35.481Z,21.20
2018-04-24T15:36:03.556Z,21.10
2018-04-24T15:38:31.630Z,20.90
2018-04-24T15:40:59.693Z,20.80
2018-04-24T15:43:27.753Z,20.70
2018-04-24T15:45:56.565Z,20.60
2018-04-24T15:48:24.625Z,20.60
2018-04-24T15:50:52.723Z,20.60
2018-04-24T15:53:20.854Z,20.60
2018-04-24T15:55:48.889Z,20.40
2018-04-24T15:58:16.957Z,20.40
2018-04-24T16:00:45.047Z,20.50
2018-04-24T16:03:13.119Z,20.40
2018-04-24T16:05:41.185Z,20.40
2018-04-24T16:08:09.241Z,20.30
2018-04-24T16:10:37.306Z,20.30
2018-04-24T16:13:05.378Z,20.20
2018-04-24T16:15:33.446Z,20.20
2018-04-24T16:18:01.510Z,20.10
2018-04-24T16:20:29.595Z,20.20
2018-04-24T16:22:57.657Z,20.20
2018-04-24T16:25:25.698Z,20.20
2018-04-24T16:27:53.830Z,20.20
2018-04-24T16:30:21.907Z,20.20
2018-04-24T16:32:49.973Z,20.20
2018-04-24T16:35:18.822Z,20.20
2018-04-24T16:37:46.893Z,20.20
2018-04-24T16:40:14.938Z,20.20
2018-04-24T16:42:43.022Z,20.20
2018-04-24T16:45:11.102Z,20.20
2018-04-24T16:47:39.165Z,20.20
2018-04-24T16:50:07.242Z,20.20
2018-04-24T16:52:36.062Z,20.10
2018-04-24T16:55:04.114Z,20.10
2018-04-24T16:57:32.205Z,20.10
2018-04-24T17:00:00.259Z,20.10
2018-04-24T17:02:28.334Z,20.00
2018-04-24T17:04:56.402Z,20.00
2018-04-24T17:07:24.462Z,19.90
2018-04-24T17:09:52.533Z,20.00
2018-04-24T17:12:20.598Z,20.00
2018-04-24T17:14:48.680Z,20.00
2018-04-24T17:17:16.749Z,20.10
2018-04-24T17:19:44.817Z,20.30
2018-04-24T17:22:12.889Z,20.30
2018-04-24T17:24:40.966Z,20.40
2018-04-24T17:27:09.082Z,20.30
2018-04-24T17:29:37.113Z,20.30
2018-04-24T17:32:05.195Z,20.20
2018-04-24T17:34:33.231Z,20.00
2018-04-24T17:37:01.273Z,19.90
2018-04-24T17:39:30.103Z,19.80
2018-04-24T17:41:58.145Z,19.80
2018-04-24T17:44:26.224Z,19.80
2018-04-24T17:46:54.270Z,19.90
2018-04-24T17:49:22.314Z,20.00
2018-04-24T17:51:50.360Z,19.90
2018-04-24T17:54:18.406Z,19.80
2018-04-24T17:56:47.222Z,19.50
2018-04-24T17:59:15.269Z,19.50
2018-04-24T18:01:56.141Z,19.40
2018-04-24T18:04:24.202Z,19.30
2018-04-24T18:06:53.001Z,19.10
2018-04-24T18:09:21.049Z,19.00
2018-04-24T18:11:49.090Z,19.00
2018-04-24T18:14:17.160Z,19.00
2018-04-24T18:16:45.236Z,18.90
2018-04-24T18:19:13.302Z,18.90
2018-04-24T18:21:41.371Z,18.90
2018-04-24T18:24:09.460Z,18.80
2018-04-24T18:26:37.514Z,18.70
2018-04-24T18:29:05.569Z,18.70
2018-04-24T18:31:33.714Z,18.70
2018-04-24T18:34:04.567Z,18.50
2018-04-24T18:36:32.637Z,18.50
2018-04-24T18:39:00.705Z,18.50
2018-04-24T18:41:28.761Z,18.40
2018-04-24T18:43:56.810Z,18.40
2018-04-24T18:46:24.880Z,18.30
2018-04-24T18:48:52.933Z,18.20
2018-04-24T18:51:25.074Z,18.10
2018-04-24T18:53:53.139Z,18.00
2018-04-24T18:56:21.210Z,17.90
2018-04-24T18:58:49.307Z,17.90
2018-04-24T19:01:19.479Z,17.80
2018-04-24T19:03:47.541Z,17.70
2018-04-24T19:06:15.621Z,17.60
2018-04-24T19:08:43.702Z,17.60
2018-04-24T19:11:11.764Z,17.50
2018-04-24T19:13:39.857Z,17.50
2018-04-24T19:16:07.893Z,17.40
2018-04-24T19:18:41.706Z,17.40
2018-04-24T19:21:09.766Z,17.40
2018-04-24T19:23:37.877Z,17.30
2018-04-24T19:26:05.930Z,17.30
2018-04-24T19:28:34.006Z,17.30
2018-04-24T19:31:07.893Z,17.30
2018-04-24T19:33:35.958Z,17.30
2018-04-24T19:36:04.032Z,17.20
2018-04-24T19:38:32.102Z,17.20
2018-04-24T19:41:05.880Z,17.20
2018-04-24T19:43:34.693Z,17.10
2018-04-24T19:46:02.760Z,17.10
2018-04-24T19:48:36.604Z,17.10
2018-04-24T19:51:04.651Z,17.00
2018-04-24T19:53:32.708Z,17.00
2018-04-24T19:56:00.810Z,17.00
2018-04-24T19:58:28.885Z,16.90
2018-04-24T20:00:56.934Z,16.90
2018-04-24T20:03:24.991Z,16.90
2018-04-24T20:05:53.090Z,16.90
2018-04-24T20:08:21.170Z,16.80
2018-04-24T20:10:49.254Z,16.80
2018-04-24T20:13:17.318Z,16.70
2018-04-24T20:15:52.034Z,16.60
2018-04-24T20:18:20.129Z,16.60
2018-04-24T20:20:48.190Z,16.60
2018-04-24T20:23:16.246Z,16.50
2018-04-24T20:25:44.291Z,16.50
2018-04-24T20:28:12.447Z,16.50
2018-04-24T20:30:40.558Z,16.50
2018-04-24T20:33:09.456Z,16.50
2018-04-24T20:35:38.243Z,16.40
2018-04-24T20:38:06.299Z,16.40
2018-04-24T20:40:34.381Z,16.40
2018-04-24T20:43:02.433Z,16.40
2018-04-24T20:45:30.546Z,16.40
2018-04-24T20:47:59.367Z,16.40
2018-04-24T20:50:27.438Z,16.30
2018-04-24T20:52:55.522Z,16.30
2018-04-24T20:55:24.631Z,16.30
2018-04-24T20:57:52.686Z,16.30
2018-04-24T21:00:20.754Z,16.20
2018-04-24T21:02:49.587Z,16.10
2018-04-24T21:05:17.634Z,16.10
2018-04-24T21:07:45.705Z,16.00
2018-04-24T21:10:13.774Z,16.00
2018-04-24T21:12:41.854Z,15.90
2018-04-24T21:15:09.935Z,15.90
2018-04-24T21:17:38.010Z,15.90
2018-04-24T21:20:06.072Z,15.80
2018-04-24T21:22:34.145Z,15.80
2018-04-24T21:25:02.193Z,15.80
2018-04-24T21:27:30.245Z,15.70
2018-04-24T21:29:58.298Z,15.70
2018-04-24T21:32:26.366Z,15.70
2018-04-24T21:34:54.401Z,15.60
2018-04-24T21:37:22.502Z,15.60
2018-04-24T21:39:50.564Z,15.60
2018-04-24T21:42:18.666Z,15.50
2018-04-24T21:44:46.730Z,15.50
2018-04-24T21:47:14.799Z,15.50
2018-04-24T21:49:42.866Z,15.50
2018-04-24T21:52:10.932Z,15.40
2018-04-24T21:54:38.983Z,15.40
2018-04-24T21:57:07.071Z,15.40
2018-04-24T21:59:35.158Z,15.40
2018-04-24T22:02:03.242Z,15.30
2018-04-24T22:04:31.326Z,15.30
2018-04-24T22:06:59.379Z,15.30
2018-04-24T22:09:27.446Z,15.40
2018-04-24T22:11:55.518Z,15.40
2018-04-24T22:14:24.353Z,15.40
2018-04-24T22:16:52.415Z,15.40
2018-04-24T22:19:20.470Z,15.40
2018-04-24T22:21:48.566Z,15.40
2018-04-24T22:24:17.365Z,15.30
2018-04-24T22:26:45.442Z,15.30
2018-04-24T22:29:13.522Z,15.30
2018-04-24T22:31:41.598Z,15.30
2018-04-24T22:34:09.642Z,15.30
2018-04-24T22:36:38.484Z,15.40
2018-04-24T22:39:06.626Z,15.40
2018-04-24T22:41:34.633Z,15.40
2018-04-24T22:44:02.731Z,15.40
2018-04-24T22:46:30.846Z,15.40
2018-04-24T22:48:58.907Z,15.40
2018-04-24T22:51:27.012Z,15.40
2018-04-24T22:53:55.042Z,15.40
2018-04-24T22:56:23.865Z,15.40
2018-04-24T22:58:51.954Z,15.30
2018-04-24T23:01:20.086Z,15.30
2018-04-24T23:03:48.152Z,15.30
2018-04-24T23:06:16.203Z,15.30
2018-04-24T23:08:44.335Z,15.30
2018-04-24T23:11:24.143Z,15.30
2018-04-24T23:14:03.996Z,15.30
2018-04-24T23:16:43.864Z,15.30
2018-04-24T23:19:23.845Z,15.30
2018-04-24T23:21:51.432Z,15.30
2018-04-24T23:24:19.502Z,15.30
2018-04-24T23:26:47.580Z,15.30
2018-04-24T23:29:15.665Z,15.30
2018-04-24T23:31:43.727Z,15.30
2018-04-24T23:34:11.827Z,15.20
2018-04-24T23:36:39.859Z,15.20
2018-04-24T23:39:07.933Z,15.20
2018-04-24T23:41:36.017Z,15.10
2018-04-24T23:44:04.081Z,15.10
2018-04-24T23:46:32.125Z,15.00
2018-04-24T23:49:00.197Z,15.00
2018-04-24T23:51:28.273Z,14.90
2018-04-24T23:53:56.358Z,14.90
2018-04-24T23:56:24.394Z,14.80
2018-04-24T23:58:52.473Z,14.70
